sensor_id;sensor_type;location;lat;lon;timestamp;P1;durP1;ratioP1;P2;durP2;ratioP2
22973;SDS011;11653;50.848;4.584;2023-02-01T00:00:09;31.93;;;10.43;;
22973;SDS011;11653;50.848;4.584;2023-02-01T00:02:36;25.10;;;10.10;;
22973;SDS011;11653;50.848;4.584;2023-02-01T00:05:06;31.63;;;10.67;;
22973;SDS011;11653;50.848;4.584;2023-02-01T00:07:33;29.43;;;10.10;;
22973;SDS011;11653;50.848;4.584;2023-02-01T00:09:59;30.90;;;9.60;;
22973;SDS011;11653;50.848;4.584;2023-02-01T00:12:25;21.43;;;8.60;;
22973;SDS011;11653;50.848;4.584;2023-02-01T00:14:51;25.40;;;8.90;;
22973;SDS011;11653;50.848;4.584;2023-02-01T00:17:17;28.80;;;11.33;;
22973;SDS011;11653;50.848;4.584;2023-02-01T00:19:42;36.63;;;10.07;;
22973;SDS011;11653;50.848;4.584;2023-02-01T00:22:08;27.03;;;11.03;;
22973;SDS011;11653;50.848;4.584;2023-02-01T00:24:34;27.40;;;10.37;;
22973;SDS011;11653;50.848;4.584;2023-02-01T00:26:59;31.67;;;10.90;;
22973;SDS011;11653;50.848;4.584;2023-02-01T00:29:25;32.77;;;10.23;;
22973;SDS011;11653;50.848;4.584;2023-02-01T00:31:51;33.53;;;12.20;;
22973;SDS011;11653;50.848;4.584;2023-02-01T00:34:17;38.47;;;14.07;;
22973;SDS011;11653;50.848;4.584;2023-02-01T00:36:44;28.77;;;11.97;;
22973;SDS011;11653;50.848;4.584;2023-02-01T00:39:11;30.70;;;12.07;;
22973;SDS011;11653;50.848;4.584;2023-02-01T00:41:36;31.33;;;13.33;;
22973;SDS011;11653;50.848;4.584;2023-02-01T00:44:02;33.17;;;12.13;;
22973;SDS011;11653;50.848;4.584;2023-02-01T00:46:28;36.30;;;13.60;;
22973;SDS011;11653;50.848;4.584;2023-02-01T00:48:54;29.17;;;11.67;;
22973;SDS011;11653;50.848;4.584;2023-02-01T00:51:21;25.87;;;11.27;;
22973;SDS011;11653;50.848;4.584;2023-02-01T00:53:49;34.80;;;11.63;;
22973;SDS011;11653;50.848;4.584;2023-02-01T00:56:16;28.73;;;12.43;;
22973;SDS011;11653;50.848;4.584;2023-02-01T00:58:42;30.47;;;11.37;;
22973;SDS011;11653;50.848;4.584;2023-02-01T01:01:09;33.00;;;12.93;;
22973;SDS011;11653;50.848;4.584;2023-02-01T01:03:37;40.20;;;12.10;;
22973;SDS011;11653;50.848;4.584;2023-02-01T01:06:05;28.33;;;10.53;;
22973;SDS011;11653;50.848;4.584;2023-02-01T01:08:33;26.07;;;10.40;;
22973;SDS011;11653;50.848;4.584;2023-02-01T01:11:03;28.80;;;10.33;;
22973;SDS011;11653;50.848;4.584;2023-02-01T01:13:30;33.33;;;12.33;;
22973;SDS011;11653;50.848;4.584;2023-02-01T01:15:56;21.10;;;8.90;;
22973;SDS011;11653;50.848;4.584;2023-02-01T01:18:26;17.97;;;7.50;;
22973;SDS011;11653;50.848;4.584;2023-02-01T01:20:52;24.53;;;7.30;;
22973;SDS011;11653;50.848;4.584;2023-02-01T01:23:17;21.70;;;7.47;;
22973;SDS011;11653;50.848;4.584;2023-02-01T01:25:43;26.10;;;7.63;;
22973;SDS011;11653;50.848;4.584;2023-02-01T01:28:09;21.80;;;8.40;;
22973;SDS011;11653;50.848;4.584;2023-02-01T01:30:35;30.03;;;8.40;;
22973;SDS011;11653;50.848;4.584;2023-02-01T01:33:00;30.53;;;8.80;;
22973;SDS011;11653;50.848;4.584;2023-02-01T01:35:28;30.43;;;9.80;;
22973;SDS011;11653;50.848;4.584;2023-02-01T01:37:55;19.83;;;7.90;;
22973;SDS011;11653;50.848;4.584;2023-02-01T01:40:21;30.77;;;10.00;;
22973;SDS011;11653;50.848;4.584;2023-02-01T01:42:46;19.53;;;7.43;;
22973;SDS011;11653;50.848;4.584;2023-02-01T01:47:56;17.13;;;6.90;;
22973;SDS011;11653;50.848;4.584;2023-02-01T01:50:27;22.67;;;8.30;;
22973;SDS011;11653;50.848;4.584;2023-02-01T01:52:56;22.33;;;6.77;;
22973;SDS011;11653;50.848;4.584;2023-02-01T01:55:25;20.87;;;5.57;;
22973;SDS011;11653;50.848;4.584;2023-02-01T01:57:59;22.93;;;6.07;;
22973;SDS011;11653;50.848;4.584;2023-02-01T02:00:30;23.10;;;6.00;;
22973;SDS011;11653;50.848;4.584;2023-02-01T02:03:00;18.77;;;6.00;;
22973;SDS011;11653;50.848;4.584;2023-02-01T02:05:34;17.00;;;5.83;;
22973;SDS011;11653;50.848;4.584;2023-02-01T02:08:00;21.63;;;5.50;;
22973;SDS011;11653;50.848;4.584;2023-02-01T02:10:26;26.60;;;5.70;;
22973;SDS011;11653;50.848;4.584;2023-02-01T02:13:13;19.83;;;4.43;;
22973;SDS011;11653;50.848;4.584;2023-02-01T02:15:42;18.90;;;4.50;;
22973;SDS011;11653;50.848;4.584;2023-02-01T02:18:19;14.77;;;4.03;;
22973;SDS011;11653;50.848;4.584;2023-02-01T02:37:04;18.07;;;4.03;;
22973;SDS011;11653;50.848;4.584;2023-02-01T02:39:49;16.93;;;4.07;;
22973;SDS011;11653;50.848;4.584;2023-02-01T02:46:19;18.27;;;4.40;;
22973;SDS011;11653;50.848;4.584;2023-02-01T02:49:34;18.97;;;3.73;;
22973;SDS011;11653;50.848;4.584;2023-02-01T02:52:13;20.33;;;4.50;;
22973;SDS011;11653;50.848;4.584;2023-02-01T02:55:02;23.00;;;5.13;;
22973;SDS011;11653;50.848;4.584;2023-02-01T02:57:37;19.67;;;3.27;;
22973;SDS011;11653;50.848;4.584;2023-02-01T03:00:24;22.10;;;3.70;;
22973;SDS011;11653;50.848;4.584;2023-02-01T03:03:13;17.47;;;4.37;;
22973;SDS011;11653;50.848;4.584;2023-02-01T03:05:57;19.07;;;4.20;;
22973;SDS011;11653;50.848;4.584;2023-02-01T03:08:28;18.90;;;4.10;;
22973;SDS011;11653;50.848;4.584;2023-02-01T03:11:10;11.23;;;4.00;;
22973;SDS011;11653;50.848;4.584;2023-02-01T03:16:20;18.53;;;3.83;;
22973;SDS011;11653;50.848;4.584;2023-02-01T03:18:58;6.77;;;2.77;;
22973;SDS011;11653;50.848;4.584;2023-02-01T03:24:07;16.80;;;4.23;;
22973;SDS011;11653;50.848;4.584;2023-02-01T03:26:38;17.57;;;5.20;;
22973;SDS011;11653;50.848;4.584;2023-02-01T03:29:17;22.47;;;3.67;;
22973;SDS011;11653;50.848;4.584;2023-02-01T03:31:47;11.00;;;3.10;;
22973;SDS011;11653;50.848;4.584;2023-02-01T03:34:13;14.63;;;4.30;;
22973;SDS011;11653;50.848;4.584;2023-02-01T03:36:49;18.07;;;3.80;;
22973;SDS011;11653;50.848;4.584;2023-02-01T03:39:24;16.10;;;3.70;;
22973;SDS011;11653;50.848;4.584;2023-02-01T03:42:01;17.50;;;3.80;;
22973;SDS011;11653;50.848;4.584;2023-02-01T03:44:38;17.47;;;4.10;;
22973;SDS011;11653;50.848;4.584;2023-02-01T03:47:16;21.27;;;4.03;;
22973;SDS011;11653;50.848;4.584;2023-02-01T03:49:49;15.53;;;4.00;;
22973;SDS011;11653;50.848;4.584;2023-02-01T03:52:27;14.37;;;3.30;;
22973;SDS011;11653;50.848;4.584;2023-02-01T03:54:57;17.00;;;3.93;;
22973;SDS011;11653;50.848;4.584;2023-02-01T03:57:29;25.87;;;4.27;;
22973;SDS011;11653;50.848;4.584;2023-02-01T04:00:31;18.93;;;3.77;;
22973;SDS011;11653;50.848;4.584;2023-02-01T04:02:51;15.50;;;3.27;;
22973;SDS011;11653;50.848;4.584;2023-02-01T04:05:17;19.97;;;3.93;;
22973;SDS011;11653;50.848;4.584;2023-02-01T04:07:43;15.53;;;3.40;;
22973;SDS011;11653;50.848;4.584;2023-02-01T04:10:09;15.93;;;3.47;;
22973;SDS011;11653;50.848;4.584;2023-02-01T04:12:35;16.47;;;3.90;;
22973;SDS011;11653;50.848;4.584;2023-02-01T04:15:02;19.57;;;4.57;;
22973;SDS011;11653;50.848;4.584;2023-02-01T04:17:28;22.00;;;5.00;;
22973;SDS011;11653;50.848;4.584;2023-02-01T04:19:54;17.97;;;4.20;;
22973;SDS011;11653;50.848;4.584;2023-02-01T04:22:20;19.93;;;4.57;;
22973;SDS011;11653;50.848;4.584;2023-02-01T04:24:45;18.13;;;4.30;;
22973;SDS011;11653;50.848;4.584;2023-02-01T04:27:11;15.93;;;3.63;;
22973;SDS011;11653;50.848;4.584;2023-02-01T04:29:37;17.37;;;3.67;;
22973;SDS011;11653;50.848;4.584;2023-02-01T04:32:03;18.17;;;3.73;;
22973;SDS011;11653;50.848;4.584;2023-02-01T04:34:30;13.17;;;3.57;;
22973;SDS011;11653;50.848;4.584;2023-02-01T04:36:56;19.13;;;4.53;;
22973;SDS011;11653;50.848;4.584;2023-02-01T04:39:21;17.90;;;4.43;;
22973;SDS011;11653;50.848;4.584;2023-02-01T04:41:47;16.57;;;3.70;;
22973;SDS011;11653;50.848;4.584;2023-02-01T04:44:13;18.50;;;4.20;;
22973;SDS011;11653;50.848;4.584;2023-02-01T04:46:41;20.13;;;4.20;;
22973;SDS011;11653;50.848;4.584;2023-02-01T04:49:08;13.83;;;3.27;;
22973;SDS011;11653;50.848;4.584;2023-02-01T04:51:34;20.10;;;3.83;;
22973;SDS011;11653;50.848;4.584;2023-02-01T04:54:00;17.83;;;3.50;;
22973;SDS011;11653;50.848;4.584;2023-02-01T04:56:25;22.10;;;3.73;;
22973;SDS011;11653;50.848;4.584;2023-02-01T04:58:51;27.90;;;4.20;;
22973;SDS011;11653;50.848;4.584;2023-02-01T05:01:17;26.47;;;4.03;;
22973;SDS011;11653;50.848;4.584;2023-02-01T05:03:43;15.83;;;4.03;;
22973;SDS011;11653;50.848;4.584;2023-02-01T05:06:08;19.10;;;3.87;;
22973;SDS011;11653;50.848;4.584;2023-02-01T05:08:34;19.43;;;4.17;;
22973;SDS011;11653;50.848;4.584;2023-02-01T05:10:59;17.97;;;3.50;;
22973;SDS011;11653;50.848;4.584;2023-02-01T05:13:27;16.37;;;3.60;;
22973;SDS011;11653;50.848;4.584;2023-02-01T05:16:12;19.43;;;3.47;;
22973;SDS011;11653;50.848;4.584;2023-02-01T05:18:38;14.70;;;3.27;;
22973;SDS011;11653;50.848;4.584;2023-02-01T05:21:03;15.20;;;3.83;;
22973;SDS011;11653;50.848;4.584;2023-02-01T05:23:29;25.50;;;4.30;;
22973;SDS011;11653;50.848;4.584;2023-02-01T05:25:59;20.53;;;5.87;;
22973;SDS011;11653;50.848;4.584;2023-02-01T05:28:26;15.63;;;3.20;;
22973;SDS011;11653;50.848;4.584;2023-02-01T05:30:52;17.17;;;4.03;;
22973;SDS011;11653;50.848;4.584;2023-02-01T05:33:18;11.67;;;3.53;;
22973;SDS011;11653;50.848;4.584;2023-02-01T05:35:44;11.50;;;2.77;;
22973;SDS011;11653;50.848;4.584;2023-02-01T05:38:09;15.00;;;3.33;;
22973;SDS011;11653;50.848;4.584;2023-02-01T05:40:35;15.27;;;3.57;;
22973;SDS011;11653;50.848;4.584;2023-02-01T05:43:01;16.50;;;3.50;;
22973;SDS011;11653;50.848;4.584;2023-02-01T05:45:26;27.20;;;4.27;;
22973;SDS011;11653;50.848;4.584;2023-02-01T05:47:52;7.93;;;1.77;;
22973;SDS011;11653;50.848;4.584;2023-02-01T05:50:18;18.03;;;3.23;;
22973;SDS011;11653;50.848;4.584;2023-02-01T05:52:43;22.93;;;4.30;;
22973;SDS011;11653;50.848;4.584;2023-02-01T05:55:09;12.17;;;3.53;;
22973;SDS011;11653;50.848;4.584;2023-02-01T05:57:35;13.87;;;3.43;;
22973;SDS011;11653;50.848;4.584;2023-02-01T06:00:01;28.73;;;5.00;;
22973;SDS011;11653;50.848;4.584;2023-02-01T06:02:27;18.03;;;3.87;;
22973;SDS011;11653;50.848;4.584;2023-02-01T06:04:53;16.07;;;3.40;;
22973;SDS011;11653;50.848;4.584;2023-02-01T06:07:18;11.73;;;3.17;;
22973;SDS011;11653;50.848;4.584;2023-02-01T06:09:44;20.43;;;4.67;;
22973;SDS011;11653;50.848;4.584;2023-02-01T06:12:10;24.47;;;3.63;;
22973;SDS011;11653;50.848;4.584;2023-02-01T06:14:35;19.40;;;3.97;;
22973;SDS011;11653;50.848;4.584;2023-02-01T06:17:02;22.73;;;4.93;;
22973;SDS011;11653;50.848;4.584;2023-02-01T06:19:28;13.80;;;3.30;;
22973;SDS011;11653;50.848;4.584;2023-02-01T06:21:53;20.20;;;4.50;;
22973;SDS011;11653;50.848;4.584;2023-02-01T06:24:19;24.53;;;4.13;;
22973;SDS011;11653;50.848;4.584;2023-02-01T06:26:44;15.10;;;5.23;;
22973;SDS011;11653;50.848;4.584;2023-02-01T06:29:10;16.60;;;3.30;;
22973;SDS011;11653;50.848;4.584;2023-02-01T06:31:36;17.10;;;3.43;;
22973;SDS011;11653;50.848;4.584;2023-02-01T06:34:02;20.03;;;3.83;;
22973;SDS011;11653;50.848;4.584;2023-02-01T06:36:28;13.83;;;3.63;;
22973;SDS011;11653;50.848;4.584;2023-02-01T06:38:55;25.93;;;4.13;;
22973;SDS011;11653;50.848;4.584;2023-02-01T06:41:24;17.13;;;3.90;;
22973;SDS011;11653;50.848;4.584;2023-02-01T06:43:51;23.73;;;4.33;;
22973;SDS011;11653;50.848;4.584;2023-02-01T06:46:17;22.67;;;4.03;;
22973;SDS011;11653;50.848;4.584;2023-02-01T06:48:43;13.67;;;3.13;;
22973;SDS011;11653;50.848;4.584;2023-02-01T06:51:29;13.73;;;3.07;;
22973;SDS011;11653;50.848;4.584;2023-02-01T06:53:55;15.77;;;3.50;;
22973;SDS011;11653;50.848;4.584;2023-02-01T06:56:21;22.90;;;4.60;;
22973;SDS011;11653;50.848;4.584;2023-02-01T06:58:47;23.93;;;3.67;;
22973;SDS011;11653;50.848;4.584;2023-02-01T07:01:14;15.13;;;3.30;;
22973;SDS011;11653;50.848;4.584;2023-02-01T07:03:40;23.73;;;4.17;;
22973;SDS011;11653;50.848;4.584;2023-02-01T07:06:07;20.47;;;5.07;;
22973;SDS011;11653;50.848;4.584;2023-02-01T07:08:34;26.40;;;3.23;;
22973;SDS011;11653;50.848;4.584;2023-02-01T07:11:05;17.07;;;3.70;;
22973;SDS011;11653;50.848;4.584;2023-02-01T07:13:33;14.87;;;3.60;;
22973;SDS011;11653;50.848;4.584;2023-02-01T07:16:00;19.20;;;4.57;;
22973;SDS011;11653;50.848;4.584;2023-02-01T07:18:28;23.00;;;4.70;;
22973;SDS011;11653;50.848;4.584;2023-02-01T07:20:54;17.17;;;3.57;;
22973;SDS011;11653;50.848;4.584;2023-02-01T07:23:21;13.23;;;2.70;;
22973;SDS011;11653;50.848;4.584;2023-02-01T07:25:47;25.63;;;3.50;;
22973;SDS011;11653;50.848;4.584;2023-02-01T07:28:13;14.57;;;3.50;;
22973;SDS011;11653;50.848;4.584;2023-02-01T07:30:38;12.60;;;2.57;;
22973;SDS011;11653;50.848;4.584;2023-02-01T07:33:06;14.13;;;3.00;;
22973;SDS011;11653;50.848;4.584;2023-02-01T07:35:32;18.20;;;3.93;;
22973;SDS011;11653;50.848;4.584;2023-02-01T07:37:58;21.50;;;4.73;;
22973;SDS011;11653;50.848;4.584;2023-02-01T07:40:24;15.27;;;3.80;;
22973;SDS011;11653;50.848;4.584;2023-02-01T07:42:56;18.37;;;3.83;;
22973;SDS011;11653;50.848;4.584;2023-02-01T07:45:23;21.53;;;2.90;;
22973;SDS011;11653;50.848;4.584;2023-02-01T07:47:50;20.00;;;3.77;;
22973;SDS011;11653;50.848;4.584;2023-02-01T07:50:17;22.43;;;4.10;;
22973;SDS011;11653;50.848;4.584;2023-02-01T07:52:42;19.13;;;3.23;;
22973;SDS011;11653;50.848;4.584;2023-02-01T07:55:08;11.90;;;3.20;;
22973;SDS011;11653;50.848;4.584;2023-02-01T07:57:34;13.33;;;3.83;;
22973;SDS011;11653;50.848;4.584;2023-02-01T08:00:00;13.37;;;3.57;;
22973;SDS011;11653;50.848;4.584;2023-02-01T08:02:44;18.53;;;3.57;;
22973;SDS011;11653;50.848;4.584;2023-02-01T08:05:10;23.17;;;3.63;;
22973;SDS011;11653;50.848;4.584;2023-02-01T08:07:36;9.10;;;2.33;;
22973;SDS011;11653;50.848;4.584;2023-02-01T08:10:02;17.47;;;4.20;;
22973;SDS011;11653;50.848;4.584;2023-02-01T08:12:30;19.13;;;3.87;;
22973;SDS011;11653;50.848;4.584;2023-02-01T08:14:56;26.00;;;4.07;;
22973;SDS011;11653;50.848;4.584;2023-02-01T08:17:21;20.53;;;3.93;;
22973;SDS011;11653;50.848;4.584;2023-02-01T08:19:47;8.80;;;2.27;;
22973;SDS011;11653;50.848;4.584;2023-02-01T08:22:13;6.60;;;2.63;;
22973;SDS011;11653;50.848;4.584;2023-02-01T08:24:38;20.50;;;4.53;;
22973;SDS011;11653;50.848;4.584;2023-02-01T08:27:06;20.17;;;3.70;;
22973;SDS011;11653;50.848;4.584;2023-02-01T08:29:31;26.73;;;5.23;;
22973;SDS011;11653;50.848;4.584;2023-02-01T08:31:57;4.53;;;2.00;;
22973;SDS011;11653;50.848;4.584;2023-02-01T08:34:23;18.10;;;3.50;;
22973;SDS011;11653;50.848;4.584;2023-02-01T08:36:49;17.53;;;3.47;;
22973;SDS011;11653;50.848;4.584;2023-02-01T08:39:16;24.17;;;4.23;;
22973;SDS011;11653;50.848;4.584;2023-02-01T08:41:42;11.30;;;3.07;;
22973;SDS011;11653;50.848;4.584;2023-02-01T08:44:28;28.70;;;3.60;;
22973;SDS011;11653;50.848;4.584;2023-02-01T08:46:54;11.33;;;3.10;;
22973;SDS011;11653;50.848;4.584;2023-02-01T08:49:19;26.03;;;4.17;;
22973;SDS011;11653;50.848;4.584;2023-02-01T08:51:45;8.77;;;3.17;;
22973;SDS011;11653;50.848;4.584;2023-02-01T08:54:11;24.10;;;3.77;;
22973;SDS011;11653;50.848;4.584;2023-02-01T08:56:37;13.47;;;3.00;;
22973;SDS011;11653;50.848;4.584;2023-02-01T08:59:02;11.67;;;4.23;;
22973;SDS011;11653;50.848;4.584;2023-02-01T09:01:28;21.20;;;5.13;;
22973;SDS011;11653;50.848;4.584;2023-02-01T09:03:54;19.57;;;4.80;;
22973;SDS011;11653;50.848;4.584;2023-02-01T09:06:20;11.40;;;2.63;;
22973;SDS011;11653;50.848;4.584;2023-02-01T09:08:46;18.53;;;4.50;;
22973;SDS011;11653;50.848;4.584;2023-02-01T09:11:16;28.53;;;4.47;;
22973;SDS011;11653;50.848;4.584;2023-02-01T09:13:44;15.70;;;2.93;;
22973;SDS011;11653;50.848;4.584;2023-02-01T09:16:10;10.87;;;3.27;;
22973;SDS011;11653;50.848;4.584;2023-02-01T09:18:36;23.90;;;4.97;;
22973;SDS011;11653;50.848;4.584;2023-02-01T09:21:05;14.83;;;3.03;;
22973;SDS011;11653;50.848;4.584;2023-02-01T09:23:32;20.83;;;5.00;;
22973;SDS011;11653;50.848;4.584;2023-02-01T09:26:02;21.27;;;4.23;;
22973;SDS011;11653;50.848;4.584;2023-02-01T09:28:29;15.03;;;4.50;;
22973;SDS011;11653;50.848;4.584;2023-02-01T09:30:59;21.13;;;3.73;;
22973;SDS011;11653;50.848;4.584;2023-02-01T09:33:26;21.63;;;4.70;;
22973;SDS011;11653;50.848;4.584;2023-02-01T09:35:56;26.57;;;4.77;;
22973;SDS011;11653;50.848;4.584;2023-02-01T09:38:23;20.57;;;4.20;;
22973;SDS011;11653;50.848;4.584;2023-02-01T09:40:50;23.80;;;4.37;;
22973;SDS011;11653;50.848;4.584;2023-02-01T09:48:48;30.57;;;6.03;;
22973;SDS011;11653;50.848;4.584;2023-02-01T09:51:27;9.93;;;3.03;;
22973;SDS011;11653;50.848;4.584;2023-02-01T09:54:13;20.97;;;4.37;;
22973;SDS011;11653;50.848;4.584;2023-02-01T09:56:53;23.90;;;3.83;;
22973;SDS011;11653;50.848;4.584;2023-02-01T09:59:41;19.80;;;3.83;;
22973;SDS011;11653;50.848;4.584;2023-02-01T10:02:29;14.10;;;4.63;;
22973;SDS011;11653;50.848;4.584;2023-02-01T10:04:56;16.13;;;4.27;;
22973;SDS011;11653;50.848;4.584;2023-02-01T10:07:31;27.17;;;3.63;;
22973;SDS011;11653;50.848;4.584;2023-02-01T10:10:18;13.70;;;3.07;;
22973;SDS011;11653;50.848;4.584;2023-02-01T10:21:56;15.70;;;3.27;;
22973;SDS011;11653;50.848;4.584;2023-02-01T10:27:16;17.00;;;3.33;;
22973;SDS011;11653;50.848;4.584;2023-02-01T10:29:48;8.13;;;2.87;;
22973;SDS011;11653;50.848;4.584;2023-02-01T10:32:29;17.63;;;2.97;;
22973;SDS011;11653;50.848;4.584;2023-02-01T10:34:57;15.20;;;3.63;;
22973;SDS011;11653;50.848;4.584;2023-02-01T10:39:56;9.00;;;2.43;;
22973;SDS011;11653;50.848;4.584;2023-02-01T10:42:26;14.77;;;3.77;;
22973;SDS011;11653;50.848;4.584;2023-02-01T10:44:58;8.13;;;1.90;;
22973;SDS011;11653;50.848;4.584;2023-02-01T10:47:26;6.17;;;2.40;;
22973;SDS011;11653;50.848;4.584;2023-02-01T10:49:54;13.33;;;3.13;;
22973;SDS011;11653;50.848;4.584;2023-02-01T10:52:49;11.73;;;2.07;;
22973;SDS011;11653;50.848;4.584;2023-02-01T10:55:26;10.77;;;3.20;;
22973;SDS011;11653;50.848;4.584;2023-02-01T10:57:56;13.03;;;3.50;;
22973;SDS011;11653;50.848;4.584;2023-02-01T11:00:23;9.50;;;1.77;;
22973;SDS011;11653;50.848;4.584;2023-02-01T11:02:49;20.90;;;2.73;;
22973;SDS011;11653;50.848;4.584;2023-02-01T11:05:15;16.23;;;2.80;;
22973;SDS011;11653;50.848;4.584;2023-02-01T11:07:48;13.83;;;2.57;;
22973;SDS011;11653;50.848;4.584;2023-02-01T11:13:05;12.53;;;2.93;;
22973;SDS011;11653;50.848;4.584;2023-02-01T11:15:37;11.87;;;3.13;;
22973;SDS011;11653;50.848;4.584;2023-02-01T11:18:14;7.60;;;2.50;;
22973;SDS011;11653;50.848;4.584;2023-02-01T11:20:42;8.17;;;2.10;;
22973;SDS011;11653;50.848;4.584;2023-02-01T11:26:19;9.40;;;2.53;;
22973;SDS011;11653;50.848;4.584;2023-02-01T11:29:02;8.07;;;1.50;;
22973;SDS011;11653;50.848;4.584;2023-02-01T11:31:29;9.80;;;2.77;;
22973;SDS011;11653;50.848;4.584;2023-02-01T11:36:36;12.67;;;2.33;;
22973;SDS011;11653;50.848;4.584;2023-02-01T11:39:17;8.57;;;1.87;;
22973;SDS011;11653;50.848;4.584;2023-02-01T11:42:15;9.00;;;2.87;;
22973;SDS011;11653;50.848;4.584;2023-02-01T11:44:43;12.57;;;2.20;;
22973;SDS011;11653;50.848;4.584;2023-02-01T11:50:09;5.67;;;1.63;;
22973;SDS011;11653;50.848;4.584;2023-02-01T11:58:06;6.47;;;1.50;;
22973;SDS011;11653;50.848;4.584;2023-02-01T12:03:56;4.97;;;1.47;;
22973;SDS011;11653;50.848;4.584;2023-02-01T12:09:58;7.27;;;2.10;;
22973;SDS011;11653;50.848;4.584;2023-02-01T12:12:54;15.63;;;2.43;;
22973;SDS011;11653;50.848;4.584;2023-02-01T12:15:40;11.00;;;2.63;;
22973;SDS011;11653;50.848;4.584;2023-02-01T12:18:24;7.47;;;2.13;;
22973;SDS011;11653;50.848;4.584;2023-02-01T12:24:08;11.63;;;2.40;;
22973;SDS011;11653;50.848;4.584;2023-02-01T12:43:45;11.87;;;2.30;;
22973;SDS011;11653;50.848;4.584;2023-02-01T12:46:31;10.40;;;2.13;;
22973;SDS011;11653;50.848;4.584;2023-02-01T12:49:04;6.73;;;2.10;;
22973;SDS011;11653;50.848;4.584;2023-02-01T12:51:44;8.27;;;2.27;;
22973;SDS011;11653;50.848;4.584;2023-02-01T12:54:14;5.83;;;1.37;;
22973;SDS011;11653;50.848;4.584;2023-02-01T12:56:51;6.73;;;1.80;;
22973;SDS011;11653;50.848;4.584;2023-02-01T12:59:30;7.30;;;1.93;;
22973;SDS011;11653;50.848;4.584;2023-02-01T13:02:28;7.27;;;1.67;;
22973;SDS011;11653;50.848;4.584;2023-02-01T13:05:20;6.80;;;1.80;;
22973;SDS011;11653;50.848;4.584;2023-02-01T13:07:53;7.53;;;1.60;;
22973;SDS011;11653;50.848;4.584;2023-02-01T13:10:38;11.67;;;1.90;;
22973;SDS011;11653;50.848;4.584;2023-02-01T13:13:14;8.53;;;1.40;;
22973;SDS011;11653;50.848;4.584;2023-02-01T13:18:52;2.63;;;1.20;;
22973;SDS011;11653;50.848;4.584;2023-02-01T13:21:27;11.53;;;2.17;;
22973;SDS011;11653;50.848;4.584;2023-02-01T13:23:58;6.77;;;1.37;;
22973;SDS011;11653;50.848;4.584;2023-02-01T13:26:24;5.80;;;1.80;;
22973;SDS011;11653;50.848;4.584;2023-02-01T13:28:53;6.73;;;1.40;;
22973;SDS011;11653;50.848;4.584;2023-02-01T13:34:30;5.30;;;1.30;;
22973;SDS011;11653;50.848;4.584;2023-02-01T13:42:30;8.87;;;1.47;;
22973;SDS011;11653;50.848;4.584;2023-02-01T13:47:38;2.90;;;1.03;;
22973;SDS011;11653;50.848;4.584;2023-02-01T13:52:42;4.20;;;1.63;;
22973;SDS011;11653;50.848;4.584;2023-02-01T13:57:38;7.37;;;1.80;;
22973;SDS011;11653;50.848;4.584;2023-02-01T14:13:31;10.23;;;1.77;;
22973;SDS011;11653;50.848;4.584;2023-02-01T14:21:46;7.63;;;2.70;;
22973;SDS011;11653;50.848;4.584;2023-02-01T14:23:57;6.77;;;1.23;;
22973;SDS011;11653;50.848;4.584;2023-02-01T14:26:44;7.07;;;1.77;;
22973;SDS011;11653;50.848;4.584;2023-02-01T14:31:54;6.67;;;2.00;;
22973;SDS011;11653;50.848;4.584;2023-02-01T14:34:28;12.90;;;2.47;;
22973;SDS011;11653;50.848;4.584;2023-02-01T14:42:30;11.93;;;2.80;;
22973;SDS011;11653;50.848;4.584;2023-02-01T14:47:44;7.40;;;1.60;;
22973;SDS011;11653;50.848;4.584;2023-02-01T14:50:19;8.37;;;2.33;;
22973;SDS011;11653;50.848;4.584;2023-02-01T15:01:13;10.60;;;2.37;;
22973;SDS011;11653;50.848;4.584;2023-02-01T15:06:41;9.23;;;2.37;;
22973;SDS011;11653;50.848;4.584;2023-02-01T15:09:17;13.53;;;2.67;;
22973;SDS011;11653;50.848;4.584;2023-02-01T15:11:57;18.00;;;3.00;;
22973;SDS011;11653;50.848;4.584;2023-02-01T15:14:27;8.97;;;1.83;;
22973;SDS011;11653;50.848;4.584;2023-02-01T15:16:54;11.80;;;2.77;;
22973;SDS011;11653;50.848;4.584;2023-02-01T15:19:24;10.70;;;3.73;;
22973;SDS011;11653;50.848;4.584;2023-02-01T15:21:53;8.90;;;2.40;;
22973;SDS011;11653;50.848;4.584;2023-02-01T15:24:23;12.67;;;2.40;;
22973;SDS011;11653;50.848;4.584;2023-02-01T15:26:51;6.47;;;1.90;;
22973;SDS011;11653;50.848;4.584;2023-02-01T15:29:18;8.37;;;2.83;;
22973;SDS011;11653;50.848;4.584;2023-02-01T15:31:47;12.37;;;2.90;;
22973;SDS011;11653;50.848;4.584;2023-02-01T15:34:14;8.23;;;2.67;;
22973;SDS011;11653;50.848;4.584;2023-02-01T15:36:41;10.10;;;1.90;;
22973;SDS011;11653;50.848;4.584;2023-02-01T15:39:24;11.70;;;3.33;;
22973;SDS011;11653;50.848;4.584;2023-02-01T15:41:55;11.67;;;2.90;;
22973;SDS011;11653;50.848;4.584;2023-02-01T15:44:42;14.53;;;2.97;;
22973;SDS011;11653;50.848;4.584;2023-02-01T15:47:25;11.50;;;3.43;;
22973;SDS011;11653;50.848;4.584;2023-02-01T15:49:56;19.50;;;3.37;;
22973;SDS011;11653;50.848;4.584;2023-02-01T15:52:24;12.37;;;2.37;;
22973;SDS011;11653;50.848;4.584;2023-02-01T15:54:56;14.00;;;2.73;;
22973;SDS011;11653;50.848;4.584;2023-02-01T15:57:29;7.33;;;2.80;;
22973;SDS011;11653;50.848;4.584;2023-02-01T16:00:17;18.30;;;4.83;;
22973;SDS011;11653;50.848;4.584;2023-02-01T16:02:55;10.63;;;2.47;;
22973;SDS011;11653;50.848;4.584;2023-02-01T16:10:38;15.90;;;3.43;;
22973;SDS011;11653;50.848;4.584;2023-02-01T16:13:06;8.37;;;1.97;;
22973;SDS011;11653;50.848;4.584;2023-02-01T16:15:32;20.10;;;3.50;;
22973;SDS011;11653;50.848;4.584;2023-02-01T16:17:58;11.87;;;3.23;;
22973;SDS011;11653;50.848;4.584;2023-02-01T16:20:24;22.80;;;6.20;;
22973;SDS011;11653;50.848;4.584;2023-02-01T16:22:49;16.00;;;2.87;;
22973;SDS011;11653;50.848;4.584;2023-02-01T16:25:17;14.37;;;2.60;;
22973;SDS011;11653;50.848;4.584;2023-02-01T16:27:43;14.37;;;3.60;;
22973;SDS011;11653;50.848;4.584;2023-02-01T16:30:09;15.63;;;3.50;;
22973;SDS011;11653;50.848;4.584;2023-02-01T16:32:35;12.87;;;3.00;;
22973;SDS011;11653;50.848;4.584;2023-02-01T16:35:03;12.23;;;2.40;;
22973;SDS011;11653;50.848;4.584;2023-02-01T16:37:30;17.77;;;3.20;;
22973;SDS011;11653;50.848;4.584;2023-02-01T16:39:58;15.30;;;3.00;;
22973;SDS011;11653;50.848;4.584;2023-02-01T16:42:24;15.37;;;3.20;;
22973;SDS011;11653;50.848;4.584;2023-02-01T16:44:49;20.33;;;2.73;;
22973;SDS011;11653;50.848;4.584;2023-02-01T16:47:19;19.20;;;4.00;;
22973;SDS011;11653;50.848;4.584;2023-02-01T16:49:46;12.67;;;2.80;;
22973;SDS011;11653;50.848;4.584;2023-02-01T16:52:22;22.50;;;2.83;;
22973;SDS011;11653;50.848;4.584;2023-02-01T16:54:50;17.60;;;3.17;;
22973;SDS011;11653;50.848;4.584;2023-02-01T16:57:17;19.20;;;2.30;;
22973;SDS011;11653;50.848;4.584;2023-02-01T16:59:44;19.87;;;2.80;;
22973;SDS011;11653;50.848;4.584;2023-02-01T17:02:11;14.10;;;2.83;;
22973;SDS011;11653;50.848;4.584;2023-02-01T17:04:42;15.23;;;3.30;;
22973;SDS011;11653;50.848;4.584;2023-02-01T17:07:12;19.77;;;4.93;;
22973;SDS011;11653;50.848;4.584;2023-02-01T17:09:39;17.47;;;4.00;;
22973;SDS011;11653;50.848;4.584;2023-02-01T17:12:05;11.03;;;2.60;;
22973;SDS011;11653;50.848;4.584;2023-02-01T17:14:31;17.30;;;5.13;;
22973;SDS011;11653;50.848;4.584;2023-02-01T17:17:01;14.83;;;2.70;;
22973;SDS011;11653;50.848;4.584;2023-02-01T17:19:26;22.93;;;3.27;;
22973;SDS011;11653;50.848;4.584;2023-02-01T17:21:53;11.17;;;2.57;;
22973;SDS011;11653;50.848;4.584;2023-02-01T17:24:25;11.67;;;2.87;;
22973;SDS011;11653;50.848;4.584;2023-02-01T17:26:52;25.57;;;4.40;;
22973;SDS011;11653;50.848;4.584;2023-02-01T17:29:18;19.37;;;2.80;;